Time;durP1;ratioP1;P1;durP2;ratioP2;P2;SDS_P1;SDS_P2;PMS_P1;PMS_P2;Temp;Humidity;BMP_temperature;BMP_pressure;BME280_temperature;BME280_humidity;BME280_pressure;Samples;Min_cycle;Max_cycle;Signal;HPM_P1;HPM_P2
2022/04/07 00:00:08;;;;;;;;;1.00;1.00;;;;;-142.59;100.00;56100.38;5111094;27;49731;-61
2022/04/07 00:02:34;;;;;;;;;0.50;0.50;;;;;-142.59;100.00;56100.38;5111149;27;49945;-61
2022/04/07 00:04:59;;;;;;;;;1.00;1.00;;;;;-142.59;100.00;56100.38;5111245;27;49753;-72
2022/04/07 00:07:24;;;;;;;;;1.00;1.00;;;;;-142.59;100.00;56100.38;5110870;27;49658;-65
2022/04/07 00:09:50;;;;;;;;;1.00;1.00;;;;;-142.59;100.00;56100.38;5111130;27;49871;-61
2022/04/07 00:12:15;;;;;;;;;2.50;1.25;;;;;-142.59;100.00;56100.38;5110894;27;49833;-67
2022/04/07 00:14:41;;;;;;;;;1.00;1.00;;;;;-142.59;100.00;56100.38;5111359;27;49861;-64
2022/04/07 00:17:06;;;;;;;;;1.00;1.00;;;;;-142.59;100.00;56100.38;5110913;27;50671;-61
2022/04/07 00:19:32;;;;;;;;;0.00;0.00;;;;;-142.59;100.00;56100.38;5110944;27;49686;-61
2022/04/07 00:21:57;;;;;;;;;0.00;0.00;;;;;-142.59;100.00;56100.38;5111659;27;50092;-67
2022/04/07 00:24:23;;;;;;;;;0.50;0.00;;;;;-142.59;100.00;56100.38;5105983;27;49969;-61
2022/04/07 00:26:48;;;;;;;;;0.50;0.50;;;;;-142.59;100.00;56100.38;5094413;27;50290;-62
2022/04/07 00:29:14;;;;;;;;;0.00;0.00;;;;;-142.59;100.00;56100.38;5094842;27;49778;-62
2022/04/07 00:31:40;;;;;;;;;0.75;0.75;;;;;-142.59;100.00;56100.38;5094686;27;49783;-62
2022/04/07 00:34:06;;;;;;;;;1.00;1.00;;;;;-142.59;100.00;56100.38;5094876;27;49943;-67
2022/04/07 00:36:32;;;;;;;;;0.75;0.75;;;;;-142.59;100.00;56100.38;5094534;27;50336;-61
2022/04/07 00:38:57;;;;;;;;;1.00;1.00;;;;;-142.59;100.00;56100.38;5094497;27;49783;-62
2022/04/07 00:41:23;;;;;;;;;1.50;1.00;;;;;-142.59;100.00;56100.38;5094490;27;50203;-62
2022/04/07 00:43:51;;;;;;;;;0.75;0.75;;;;;-142.59;100.00;56100.38;5114547;27;49989;-62
2022/04/07 00:46:18;;;;;;;;;2.00;1.25;;;;;-142.59;100.00;56100.38;5101154;27;49696;-61
2022/04/07 00:48:43;;;;;;;;;0.50;0.00;;;;;-142.59;100.00;56100.38;5094586;27;49747;-62
2022/04/07 00:51:09;;;;;;;;;2.25;0.50;;;;;-142.59;100.00;56100.38;5093011;27;49736;-61
2022/04/07 00:53:35;;;;;;;;;0.75;0.75;;;;;-142.59;100.00;56100.38;5094560;27;49866;-62
2022/04/07 00:56:01;;;;;;;;;1.00;1.00;;;;;-142.59;100.00;56100.38;5093970;27;49730;-61
2022/04/07 00:58:30;;;;;;;;;3.25;1.00;;;;;-142.59;100.00;56100.38;5093735;27;49877;-61
2022/04/07 01:00:59;;;;;;;;;1.25;1.00;;;;;-142.59;100.00;56100.38;5094108;27;49908;-62
2022/04/07 01:03:25;;;;;;;;;1.00;1.00;;;;;-142.59;100.00;56100.38;5094478;27;49872;-65
2022/04/07 01:05:51;;;;;;;;;1.50;1.00;;;;;-142.59;100.00;56100.38;5093999;27;50427;-67
2022/04/07 01:08:16;;;;;;;;;1.00;0.50;;;;;-142.59;100.00;56100.38;5094040;27;49836;-72
2022/04/07 01:10:42;;;;;;;;;1.25;1.25;;;;;-142.59;100.00;56100.38;5094112;27;49970;-65
2022/04/07 01:13:08;;;;;;;;;1.50;0.00;;;;;-142.59;100.00;56100.38;5094027;27;49848;-64
2022/04/07 01:15:34;;;;;;;;;1.00;1.00;;;;;-142.59;100.00;56100.38;5093634;27;49793;-61
2022/04/07 01:18:03;;;;;;;;;1.75;0.50;;;;;-142.59;100.00;56100.38;5093821;27;49840;-61
2022/04/07 01:20:29;;;;;;;;;1.00;1.00;;;;;-142.59;100.00;56100.38;5094120;27;49965;-61
2022/04/07 01:22:56;;;;;;;;;1.75;1.75;;;;;-142.59;100.00;56100.38;5093989;27;49833;-61
2022/04/07 01:25:21;;;;;;;;;1.00;1.00;;;;;-142.59;100.00;56100.38;5093921;27;49856;-61
2022/04/07 01:27:49;;;;;;;;;6.75;2.75;;;;;-142.59;100.00;56100.38;5093440;27;50264;-61
2022/04/07 01:30:16;;;;;;;;;1.00;1.00;;;;;-142.59;100.00;56100.38;5093928;27;49891;-61
2022/04/07 01:32:45;;;;;;;;;1.50;1.00;;;;;-142.59;100.00;56100.38;5093502;27;49605;-61
2022/04/07 01:35:12;;;;;;;;;1.00;1.00;;;;;-142.59;100.00;56100.38;5092644;27;50672;-61
2022/04/07 01:37:38;;;;;;;;;2.00;0.00;;;;;-142.59;100.00;56100.38;5093805;27;49868;-61
2022/04/07 01:40:07;;;;;;;;;1.50;1.50;;;;;-142.59;100.00;56100.38;5093703;27;49612;-61
2022/04/07 01:42:33;;;;;;;;;3.00;3.00;;;;;-142.59;100.00;56100.38;5093601;27;49659;-61
2022/04/07 01:45:02;;;;;;;;;1.00;1.00;;;;;-142.59;100.00;56100.38;5093541;27;49814;-61
2022/04/07 01:47:29;;;;;;;;;1.75;1.25;;;;;-142.59;100.00;56100.38;5093496;27;49899;-61
2022/04/07 01:50:10;;;;;;;;;1.00;1.00;;;;;-142.59;100.00;56100.38;5093382;27;49709;-61
2022/04/07 01:52:42;;;;;;;;;1.25;1.25;;;;;-142.59;100.00;56100.38;5093494;27;49911;-62
2022/04/07 01:55:08;;;;;;;;;2.00;0.25;;;;;-142.59;100.00;56100.38;5091871;27;51427;-61
2022/04/07 01:57:34;;;;;;;;;1.00;1.00;;;;;-142.59;100.00;56100.38;5091585;27;49752;-61
2022/04/07 02:00:00;;;;;;;;;1.00;1.00;;;;;-142.59;100.00;56100.38;5093354;27;49631;-61
2022/04/07 02:02:26;;;;;;;;;3.25;0.75;;;;;-142.59;100.00;56100.38;5093415;27;49791;-61
2022/04/07 02:05:09;;;;;;;;;1.00;1.00;;;;;-142.59;100.00;56100.38;5093004;27;49801;-61
2022/04/07 02:07:36;;;;;;;;;1.00;1.00;;;;;-142.59;100.00;56100.38;5105886;27;49806;-64
2022/04/07 02:10:03;;;;;;;;;2.25;1.25;;;;;-142.59;100.00;56100.38;5112907;27;49900;-61
2022/04/07 02:12:29;;;;;;;;;2.50;0.25;;;;;-142.59;100.00;56100.38;5112629;27;50377;-61
2022/04/07 02:14:59;;;;;;;;;0.25;0.25;;;;;-142.59;100.00;56100.38;5112503;27;49799;-61
2022/04/07 02:17:25;;;;;;;;;0.50;0.50;;;;;-142.59;100.00;56100.38;5112900;27;49975;-62
2022/04/07 02:19:53;;;;;;;;;3.00;1.00;;;;;-142.59;100.00;56100.38;5112766;27;49807;-61
2022/04/07 02:22:19;;;;;;;;;1.00;1.00;;;;;-142.59;100.00;56100.38;5112818;27;49752;-61
2022/04/07 02:24:45;;;;;;;;;2.00;0.75;;;;;-142.59;100.00;56100.38;5112467;27;49868;-61
2022/04/07 02:27:11;;;;;;;;;3.25;1.50;;;;;-142.59;100.00;56100.38;5112207;27;49791;-63
2022/04/07 02:29:37;;;;;;;;;3.00;3.00;;;;;-142.59;100.00;56100.38;5112585;27;49864;-62
2022/04/07 02:32:03;;;;;;;;;0.00;0.00;;;;;-142.59;100.00;56100.38;5112702;27;50134;-65
2022/04/07 02:34:29;;;;;;;;;1.75;1.00;;;;;-142.59;100.00;56100.38;5111347;27;52420;-65
2022/04/07 02:36:54;;;;;;;;;2.75;1.75;;;;;-142.59;100.00;56100.38;5112474;27;49935;-68
2022/04/07 02:39:20;;;;;;;;;0.75;0.75;;;;;-142.59;100.00;56100.38;5112556;27;49876;-63
2022/04/07 02:41:45;;;;;;;;;1.50;1.00;;;;;-142.59;100.00;56100.38;5112382;27;49944;-71
2022/04/07 02:44:10;;;;;;;;;1.00;1.00;;;;;-142.59;100.00;56100.38;5111841;27;50009;-68
2022/04/07 02:46:36;;;;;;;;;0.75;0.75;;;;;-142.59;100.00;56100.38;5111944;27;49740;-69
2022/04/07 02:49:02;;;;;;;;;1.00;1.00;;;;;-142.59;100.00;56100.38;5112418;27;49778;-69
2022/04/07 02:51:27;;;;;;;;;3.50;1.75;;;;;-142.59;100.00;56100.38;5112439;27;49746;-71
2022/04/07 02:53:57;;;;;;;;;0.50;0.00;;;;;-142.59;100.00;56100.38;5112156;27;49805;-65
2022/04/07 02:56:24;;;;;;;;;2.00;2.00;;;;;-142.59;100.00;56100.38;5111721;27;49766;-68
2022/04/07 02:58:49;;;;;;;;;1.50;1.50;;;;;-142.59;100.00;56100.38;5112157;27;49815;-69
2022/04/07 03:01:15;;;;;;;;;1.00;1.00;;;;;-142.59;100.00;56100.38;5112208;27;49918;-65
2022/04/07 03:03:40;;;;;;;;;1.50;1.00;;;;;-142.59;100.00;56100.38;5111749;27;51426;-67
2022/04/07 03:06:06;;;;;;;;;6.25;3.75;;;;;-142.59;100.00;56100.38;5111770;27;49786;-70
2022/04/07 03:08:33;;;;;;;;;1.00;1.00;;;;;-142.59;100.00;56100.38;5112375;27;49974;-65
2022/04/07 03:10:59;;;;;;;;;2.00;2.00;;;;;-142.59;100.00;56100.38;5112103;27;50123;-61
2022/04/07 03:13:24;;;;;;;;;1.75;1.50;;;;;-142.59;100.00;56100.38;5111502;27;51027;-61
2022/04/07 03:15:50;;;;;;;;;1.25;1.25;;;;;-142.59;100.00;56100.38;5111775;27;49758;-61
2022/04/07 03:18:15;;;;;;;;;1.00;1.00;;;;;-142.59;100.00;56100.38;5111869;27;49955;-61
2022/04/07 03:20:40;;;;;;;;;2.50;2.50;;;;;-142.59;100.00;56100.38;5112002;27;49863;-61
2022/04/07 03:23:06;;;;;;;;;2.00;2.00;;;;;-142.59;100.00;56100.38;5111386;27;51055;-61
2022/04/07 03:25:31;;;;;;;;;2.75;1.00;;;;;-142.59;100.00;56100.38;5111499;27;49866;-61
2022/04/07 03:27:56;;;;;;;;;2.50;1.50;;;;;-142.59;100.00;56100.38;5111467;27;49696;-61
2022/04/07 03:30:22;;;;;;;;;1.00;1.00;;;;;-142.59;100.00;56100.38;5111870;27;49738;-61
2022/04/07 03:32:47;;;;;;;;;2.00;0.25;;;;;-142.59;100.00;56100.38;5111497;27;49953;-61
2022/04/07 03:35:13;;;;;;;;;0.75;0.75;;;;;-142.59;100.00;56100.38;5110376;27;49740;-61
2022/04/07 03:37:38;;;;;;;;;1.50;1.50;;;;;-142.59;100.00;56100.38;5111561;27;49818;-61
2022/04/07 03:40:04;;;;;;;;;0.25;0.25;;;;;-142.59;100.00;56100.38;5111283;27;50061;-61
2022/04/07 03:42:30;;;;;;;;;3.25;1.00;;;;;-142.59;100.00;56100.38;5111014;27;50691;-61
2022/04/07 03:44:55;;;;;;;;;0.25;0.25;;;;;-142.59;100.00;56100.38;5111555;27;49725;-61
2022/04/07 03:47:20;;;;;;;;;0.75;0.75;;;;;-142.59;100.00;56100.38;5111506;27;49904;-61
2022/04/07 03:49:46;;;;;;;;;2.50;2.50;;;;;-142.59;100.00;56100.38;5111669;27;49852;-61
2022/04/07 03:52:11;;;;;;;;;2.00;0.75;;;;;-142.59;100.00;56100.38;5111210;27;50306;-61
2022/04/07 03:54:36;;;;;;;;;1.00;1.00;;;;;-142.59;100.00;56100.38;5111338;27;49944;-63
2022/04/07 03:57:02;;;;;;;;;2.75;1.00;;;;;-142.59;100.00;56100.38;5109945;27;49766;-61
2022/04/07 03:59:28;;;;;;;;;2.00;2.00;;;;;-142.59;100.00;56100.38;5111307;27;49883;-61
2022/04/07 04:01:54;;;;;;;;;1.75;1.25;;;;;-142.59;100.00;56100.38;5110463;27;49812;-61
2022/04/07 04:04:22;;;;;;;;;1.75;1.75;;;;;-142.59;100.00;56100.38;5111124;27;49635;-62
2022/04/07 04:06:47;;;;;;;;;2.25;2.00;;;;;-142.59;100.00;56100.38;5111122;27;49809;-63
2022/04/07 04:09:13;;;;;;;;;1.75;1.75;;;;;-142.59;100.00;56100.38;5111242;27;49769;-62
2022/04/07 04:11:38;;;;;;;;;1.00;1.00;;;;;-142.59;100.00;56100.38;5110835;27;49801;-62
2022/04/07 04:14:04;;;;;;;;;2.00;2.00;;;;;-142.59;100.00;56100.38;5110742;27;49947;-61
2022/04/07 04:16:30;;;;;;;;;4.00;3.00;;;;;-142.59;100.00;56100.38;5110843;27;49669;-62
2022/04/07 04:18:56;;;;;;;;;3.00;2.75;;;;;-142.59;100.00;56100.38;5111049;27;49825;-62
2022/04/07 04:21:22;;;;;;;;;0.25;0.25;;;;;-142.59;100.00;56100.38;5110805;27;49821;-62
2022/04/07 04:23:48;;;;;;;;;3.00;3.00;;;;;-142.59;100.00;56100.38;5110878;27;49876;-64
2022/04/07 04:26:13;;;;;;;;;1.00;1.00;;;;;-142.59;100.00;56100.38;5123672;27;49637;-61
2022/04/07 04:28:39;;;;;;;;;0.75;0.75;;;;;-142.59;100.00;56100.38;5091168;27;49798;-62
2022/04/07 04:31:04;;;;;;;;;1.00;1.00;;;;;-142.59;100.00;56100.38;5090920;27;50526;-63
2022/04/07 04:33:29;;;;;;;;;1.25;1.00;;;;;-142.59;100.00;56100.38;5090660;27;49808;-63
2022/04/07 04:35:55;;;;;;;;;2.50;1.00;;;;;-142.59;100.00;56100.38;5103320;27;49667;-61
2022/04/07 04:38:20;;;;;;;;;0.25;0.25;;;;;-142.59;100.00;56100.38;5091139;27;50165;-63
2022/04/07 04:40:46;;;;;;;;;3.25;1.00;;;;;-142.59;100.00;56100.38;5090870;27;49817;-62
2022/04/07 04:43:11;;;;;;;;;3.00;1.25;;;;;-142.59;100.00;56100.38;5090741;27;49757;-62
2022/04/07 04:45:36;;;;;;;;;1.00;1.00;;;;;-142.59;100.00;56100.38;5090877;27;50245;-62
2022/04/07 04:48:02;;;;;;;;;0.00;0.00;;;;;-142.59;100.00;56100.38;5091085;27;49715;-65
2022/04/07 04:50:27;;;;;;;;;1.00;1.00;;;;;-142.59;100.00;56100.38;5090612;27;49791;-69
2022/04/07 04:52:53;;;;;;;;;3.00;3.00;;;;;-142.59;100.00;56100.38;5090457;27;49924;-70
2022/04/07 04:55:19;;;;;;;;;5.00;2.75;;;;;-142.59;100.00;56100.38;5090648;27;49900;-72
2022/04/07 04:57:44;;;;;;;;;0.75;0.75;;;;;-142.59;100.00;56100.38;5091058;27;49876;-62
2022/04/07 05:00:11;;;;;;;;;3.25;1.00;;;;;-142.59;100.00;56100.38;5090474;27;49926;-64
2022/04/07 05:02:39;;;;;;;;;1.75;1.00;;;;;-142.59;100.00;56100.38;5091201;27;49789;-73
2022/04/07 05:05:06;;;;;;;;;1.25;0.00;;;;;-142.59;100.00;56100.38;5090749;27;50071;-69
2022/04/07 05:07:32;;;;;;;;;1.00;1.00;;;;;-142.59;100.00;56100.38;5090893;27;49746;-62
2022/04/07 05:09:57;;;;;;;;;3.75;3.25;;;;;-142.59;100.00;56100.38;5094102;27;50911;-61
2022/04/07 05:12:23;;;;;;;;;2.25;2.25;;;;;-142.59;100.00;56100.38;5105171;27;49739;-60
2022/04/07 05:14:48;;;;;;;;;3.00;1.75;;;;;-142.59;100.00;56100.38;5113830;27;49781;-61
2022/04/07 05:17:14;;;;;;;;;1.00;1.00;;;;;-142.59;100.00;56100.38;5114134;27;49839;-67
2022/04/07 05:19:39;;;;;;;;;1.00;0.75;;;;;-142.59;100.00;56100.38;5116660;27;49637;-60
2022/04/07 05:22:05;;;;;;;;;2.50;2.50;;;;;-142.59;100.00;56100.38;5113461;27;49866;-62
2022/04/07 05:24:30;;;;;;;;;3.25;2.00;;;;;-142.59;100.00;56100.38;5113573;27;49736;-69
2022/04/07 05:26:55;;;;;;;;;2.00;1.00;;;;;-142.59;100.00;56100.38;5113665;27;49910;-63
2022/04/07 05:29:21;;;;;;;;;1.75;0.75;;;;;-142.59;100.00;56100.38;5113020;27;50545;-66
2022/04/07 05:31:46;;;;;;;;;3.00;1.00;;;;;-142.59;100.00;56100.38;5113836;27;49757;-66
2022/04/07 05:34:13;;;;;;;;;2.25;2.00;;;;;-142.59;100.00;56100.38;5113888;27;49881;-65
2022/04/07 05:36:39;;;;;;;;;4.00;2.00;;;;;-142.59;100.00;56100.38;5113647;27;49931;-64
2022/04/07 05:39:05;;;;;;;;;2.00;1.25;;;;;-142.59;100.00;56100.38;5113258;27;51028;-63
2022/04/07 05:41:31;;;;;;;;;0.00;0.00;;;;;-142.59;100.00;56100.38;5113527;27;49780;-64
2022/04/07 05:43:56;;;;;;;;;3.50;1.25;;;;;-142.59;100.00;56100.38;5112982;27;49859;-67
2022/04/07 05:46:22;;;;;;;;;2.00;2.00;;;;;-142.59;100.00;56100.38;5111088;27;49672;-64
2022/04/07 05:48:47;;;;;;;;;2.50;1.50;;;;;-142.59;100.00;56100.38;5109120;27;50320;-65
2022/04/07 05:51:13;;;;;;;;;2.00;1.00;;;;;-142.59;100.00;56100.38;5109775;27;49934;-66
2022/04/07 05:53:39;;;;;;;;;1.00;1.00;;;;;-142.59;100.00;56100.38;5114477;27;50338;-66
2022/04/07 05:56:04;;;;;;;;;3.00;2.00;;;;;-142.59;100.00;56100.38;5098725;27;49589;-63
2022/04/07 05:58:30;;;;;;;;;0.00;0.00;;;;;-142.59;100.00;56100.38;5094409;27;50584;-65
2022/04/07 06:00:55;;;;;;;;;0.75;0.75;;;;;-142.59;100.00;56100.38;5093232;27;50035;-62
2022/04/07 06:03:21;;;;;;;;;2.75;1.75;;;;;-142.59;100.00;56100.38;5101775;27;49840;-68
2022/04/07 06:05:52;;;;;;;;;0.00;0.00;;;;;-142.59;100.00;56100.38;5097485;27;49622;-67
2022/04/07 06:08:21;;;;;;;;;1.25;1.00;;;;;-142.59;100.00;56100.38;5093027;27;50453;-67
2022/04/07 06:10:47;;;;;;;;;1.00;1.00;;;;;-142.59;100.00;56100.38;5093156;27;49843;-66
2022/04/07 06:13:14;;;;;;;;;0.25;0.25;;;;;-142.59;100.00;56100.38;5092817;27;49923;-64
2022/04/07 06:15:40;;;;;;;;;1.00;1.00;;;;;-142.59;100.00;56100.38;5093410;27;49872;-67
2022/04/07 06:18:08;;;;;;;;;0.75;0.75;;;;;-142.59;100.00;56100.38;5098183;27;50113;-62
2022/04/07 06:20:33;;;;;;;;;0.00;0.00;;;;;-142.59;100.00;56100.38;5092708;27;49777;-63
2022/04/07 06:23:00;;;;;;;;;1.00;1.00;;;;;-142.59;100.00;56100.38;5092865;27;49772;-69
2022/04/07 06:25:26;;;;;;;;;1.75;0.25;;;;;-142.59;100.00;56100.38;5099990;27;49815;-66
2022/04/07 06:27:51;;;;;;;;;1.75;1.00;;;;;-142.59;100.00;56100.38;5100913;27;49898;-64
2022/04/07 06:30:18;;;;;;;;;1.00;1.00;;;;;-142.59;100.00;56100.38;5092709;27;49893;-62
2022/04/07 06:32:45;;;;;;;;;3.00;1.50;;;;;-142.59;100.00;56100.38;5092833;27;49839;-76
2022/04/07 06:35:20;;;;;;;;;2.00;2.00;;;;;-142.59;100.00;56100.38;5099588;27;50073;-70
2022/04/07 06:37:54;;;;;;;;;2.25;2.00;;;;;-142.59;100.00;56100.38;5097566;27;50707;-64
2022/04/07 06:40:22;;;;;;;;;0.50;0.50;;;;;-142.59;100.00;56100.38;5095666;27;49894;-67
2022/04/07 06:42:48;;;;;;;;;0.75;0.75;;;;;-142.59;100.00;56100.38;5093156;27;49806;-81
2022/04/07 06:45:17;;;;;;;;;1.00;1.00;;;;;-142.59;100.00;56100.38;5089182;27;49898;-74
2022/04/07 06:47:45;;;;;;;;;2.00;1.00;;;;;-142.59;100.00;56100.38;5092621;27;50536;-78
2022/04/07 06:50:12;;;;;;;;;2.00;1.00;;;;;-142.59;100.00;56100.38;5092938;27;50055;-74
2022/04/07 06:52:39;;;;;;;;;2.50;2.00;;;;;-142.59;100.00;56100.38;5092616;27;49616;-79
2022/04/07 06:55:06;;;;;;;;;0.00;0.00;;;;;-142.59;100.00;56100.38;5092554;27;49817;-72
2022/04/07 06:57:31;;;;;;;;;1.00;0.50;;;;;-142.59;100.00;56100.38;5092002;27;50735;-74
2022/04/07 06:59:57;;;;;;;;;0.25;0.25;;;;;-142.59;100.00;56100.38;5094366;27;49989;-78
2022/04/07 07:02:22;;;;;;;;;2.00;1.00;;;;;-142.59;100.00;56100.38;5096026;27;49810;-69
2022/04/07 07:04:48;;;;;;;;;0.25;0.25;;;;;-142.59;100.00;56100.38;5092857;27;50008;-69
2022/04/07 07:07:14;;;;;;;;;1.00;1.00;;;;;-142.59;100.00;56100.38;5092176;27;50402;-71
2022/04/07 07:09:39;;;;;;;;;0.00;0.00;;;;;-142.59;100.00;56100.38;5092411;27;49783;-71
2022/04/07 07:12:05;;;;;;;;;1.75;1.00;;;;;-142.59;100.00;56100.38;5092175;27;49849;-70
2022/04/07 07:14:31;;;;;;;;;1.50;0.25;;;;;-142.59;100.00;56100.38;5091940;27;49924;-70
2022/04/07 07:16:56;;;;;;;;;1.00;1.00;;;;;-142.59;100.00;56100.38;5091910;27;49761;-73
2022/04/07 07:19:28;;;;;;;;;0.00;0.00;;;;;-142.59;100.00;56100.38;5092234;27;49770;-73
2022/04/07 07:21:54;;;;;;;;;3.00;1.75;;;;;-142.59;100.00;56100.38;5092065;27;49752;-73
2022/04/07 07:24:20;;;;;;;;;0.50;0.50;;;;;-142.59;100.00;56100.38;5092341;27;50002;-74
2022/04/07 07:26:45;;;;;;;;;0.00;0.00;;;;;-142.59;100.00;56100.38;5091775;27;49971;-74
2022/04/07 07:29:11;;;;;;;;;0.75;0.75;;;;;-142.59;100.00;56100.38;5091626;27;49873;-75
2022/04/07 07:31:36;;;;;;;;;0.75;0.25;;;;;-142.59;100.00;56100.38;5091783;27;49834;-75
2022/04/07 07:34:05;;;;;;;;;1.00;1.00;;;;;-142.59;100.00;56100.38;5092251;27;49894;-74
2022/04/07 07:36:31;;;;;;;;;1.00;1.00;;;;;-142.59;100.00;56100.38;5098540;27;50969;-74
2022/04/07 07:38:57;;;;;;;;;0.25;0.00;;;;;-142.59;100.00;56100.38;5091647;27;49725;-73
2022/04/07 07:41:23;;;;;;;;;0.75;0.75;;;;;-142.59;100.00;56100.38;5091896;27;50033;-73
2022/04/07 07:43:49;;;;;;;;;1.00;1.00;;;;;-142.59;100.00;56100.38;5091866;27;49780;-74
2022/04/07 07:46:16;;;;;;;;;1.00;1.00;;;;;-142.59;100.00;56100.38;5091476;27;50606;-74
2022/04/07 07:48:42;;;;;;;;;0.00;0.00;;;;;-142.59;100.00;56100.38;5091720;27;49583;-77
2022/04/07 07:51:08;;;;;;;;;0.00;0.00;;;;;-142.59;100.00;56100.38;5091324;27;49914;-74
2022/04/07 07:53:33;;;;;;;;;1.00;1.00;;;;;-142.59;100.00;56100.38;5093081;27;49762;-69
2022/04/07 07:55:58;;;;;;;;;0.00;0.00;;;;;-142.59;100.00;56100.38;5091111;27;49960;-69
2022/04/07 07:58:24;;;;;;;;;0.00;0.00;;;;;-142.59;100.00;56100.38;5091503;27;49758;-70
2022/04/07 08:00:49;;;;;;;;;1.50;0.00;;;;;-142.59;100.00;56100.38;5091567;27;49630;-72
2022/04/07 08:03:15;;;;;;;;;0.00;0.00;;;;;-142.59;100.00;56100.38;5091670;27;49990;-77
2022/04/07 08:05:41;;;;;;;;;0.00;0.00;;;;;-142.59;100.00;56100.38;5091197;27;51491;-70
2022/04/07 08:08:06;;;;;;;;;0.00;0.00;;;;;-142.59;100.00;56100.38;5089917;27;49751;-79
2022/04/07 08:10:32;;;;;;;;;0.00;0.00;;;;;-142.59;100.00;56100.38;5091047;27;49764;-70
2022/04/07 08:12:57;;;;;;;;;0.00;0.00;;;;;-142.59;100.00;56100.38;5091045;27;49736;-79
2022/04/07 08:15:24;;;;;;;;;0.00;0.00;;;;;-142.59;100.00;56100.38;5093826;27;50522;-76
2022/04/07 08:17:50;;;;;;;;;0.00;0.00;;;;;-142.59;100.00;56100.38;5099328;27;49866;-78
2022/04/07 08:20:16;;;;;;;;;0.00;0.00;;;;;-142.59;100.00;56100.38;5109885;27;49617;-80
2022/04/07 08:22:41;;;;;;;;;0.00;0.00;;;;;-142.59;100.00;56100.38;5110993;27;49731;-81
2022/04/07 08:25:08;;;;;;;;;0.00;0.00;;;;;-142.59;100.00;56100.38;5110574;27;50774;-77
2022/04/07 08:27:34;;;;;;;;;1.00;0.00;;;;;-142.59;100.00;56100.38;5110756;27;50006;-75
2022/04/07 08:29:59;;;;;;;;;0.00;0.00;;;;;-142.59;100.00;56100.38;5126461;27;49984;-76
2022/04/07 08:32:24;;;;;;;;;1.00;0.00;;;;;-142.59;100.00;56100.38;5109434;27;50042;-79
2022/04/07 08:34:50;;;;;;;;;0.00;0.00;;;;;-142.59;100.00;56100.38;5091170;27;50918;-81
2022/04/07 08:37:15;;;;;;;;;0.00;0.00;;;;;-142.59;100.00;56100.38;5091047;27;49788;-79
2022/04/07 08:39:41;;;;;;;;;0.00;0.00;;;;;-142.59;100.00;56100.38;5091211;27;49720;-81
2022/04/07 08:42:07;;;;;;;;;0.00;0.00;;;;;-142.59;100.00;56100.38;5091006;27;49962;-82
2022/04/07 08:44:33;;;;;;;;;0.00;0.00;;;;;-142.59;100.00;56100.38;5093575;27;50032;-80
2022/04/07 08:47:00;;;;;;;;;0.00;0.00;;;;;-142.59;100.00;56100.38;5092952;27;49678;-77
2022/04/07 08:49:29;;;;;;;;;0.00;0.00;;;;;-142.59;100.00;56100.38;5094337;27;49740;-76
2022/04/07 08:51:54;;;;;;;;;0.00;0.00;;;;;-142.59;100.00;56100.38;5100980;27;49844;-77
2022/04/07 08:54:21;;;;;;;;;0.00;0.00;;;;;-142.59;100.00;56100.38;5098161;27;49845;-81
2022/04/07 08:56:48;;;;;;;;;0.00;0.00;;;;;-142.59;100.00;56100.38;5113770;27;49771;-81
2022/04/07 08:59:13;;;;;;;;;0.00;0.00;;;;;-142.59;100.00;56100.38;5096883;27;49864;-71
2022/04/07 09:01:39;;;;;;;;;0.00;0.00;;;;;-142.59;100.00;56100.38;5094200;27;50006;-71
2022/04/07 09:04:05;;;;;;;;;1.00;0.00;;;;;-142.59;100.00;56100.38;5093863;27;50323;-68
2022/04/07 09:06:34;;;;;;;;;0.00;0.00;;;;;-142.59;100.00;56100.38;5094160;27;49656;-72
2022/04/07 09:09:18;;;;;;;;;0.00;0.00;;;;;-142.59;100.00;56100.38;5094234;27;49809;-68
2022/04/07 09:11:44;;;;;;;;;0.00;0.00;;;;;-142.59;100.00;56100.38;5094130;27;49647;-72
2022/04/07 09:14:11;;;;;;;;;0.00;0.00;;;;;-142.59;100.00;56100.38;5093731;27;49795;-71
2022/04/07 09:16:40;;;;;;;;;0.75;0.00;;;;;-142.59;100.00;56100.38;5092699;27;49736;-67
2022/04/07 09:19:07;;;;;;;;;0.00;0.00;;;;;-142.59;100.00;56100.38;5093651;27;49661;-68
2022/04/07 09:21:34;;;;;;;;;0.00;0.00;;;;;-142.59;100.00;56100.38;5094034;27;49824;-68
2022/04/07 09:24:01;;;;;;;;;1.00;0.00;;;;;-142.59;100.00;56100.38;5093377;27;49886;-68
2022/04/07 09:26:29;;;;;;;;;0.00;0.00;;;;;-142.59;100.00;56100.38;5092265;27;49807;-71
2022/04/07 09:28:57;;;;;;;;;0.00;0.00;;;;;-142.59;100.00;56100.38;5093275;27;49667;-71
2022/04/07 09:31:23;;;;;;;;;0.00;0.00;;;;;-142.59;100.00;56100.38;5093887;27;49794;-70
2022/04/07 09:33:54;;;;;;;;;0.00;0.00;;;;;-142.59;100.00;56100.38;5092248;27;52242;-69
2022/04/07 09:36:21;;;;;;;;;0.00;0.00;;;;;-142.59;100.00;56100.38;5093823;27;49792;-70
2022/04/07 09:38:54;;;;;;;;;0.00;0.00;;;;;-142.59;100.00;56100.38;5093504;27;49761;-68
2022/04/07 09:41:22;;;;;;;;;0.00;0.00;;;;;-142.59;100.00;56100.38;5093500;27;49919;-69
2022/04/07 09:43:47;;;;;;;;;0.00;0.00;;;;;-142.59;100.00;56100.38;5091632;27;51633;-69
2022/04/07 09:46:18;;;;;;;;;1.75;1.75;;;;;-142.59;100.00;56100.38;5093427;27;49792;-69
2022/04/07 09:49:07;;;;;;;;;1.00;1.00;;;;;-142.59;100.00;56100.38;5093671;27;49776;-68
2022/04/07 09:51:51;;;;;;;;;1.50;1.50;;;;;-142.59;100.00;56100.38;5092282;27;49941;-68
2022/04/07 09:54:17;;;;;;;;;2.00;2.00;;;;;-142.59;100.00;56100.38;5094152;27;49873;-69
2022/04/07 09:56:45;;;;;;;;;1.00;1.00;;;;;-142.59;100.00;56100.38;5092898;27;49692;-69
2022/04/07 09:59:16;;;;;;;;;2.00;2.00;;;;;-142.59;100.00;56100.38;5093182;27;49659;-69
2022/04/07 10:01:43;;;;;;;;;0.00;0.00;;;;;-142.59;100.00;56100.38;5093489;27;49787;-69
2022/04/07 10:04:09;;;;;;;;;4.50;1.00;;;;;-142.59;100.00;56100.38;5093163;27;51188;-68
2022/04/07 10:06:37;;;;;;;;;2.00;1.00;;;;;-142.59;100.00;56100.38;5097790;27;50256;-69
2022/04/07 10:09:08;;;;;;;;;1.00;1.00;;;;;-142.59;100.00;56100.38;5093102;27;49894;-71
2022/04/07 10:11:34;;;;;;;;;0.00;0.00;;;;;-142.59;100.00;56100.38;5093346;27;50086;-70
2022/04/07 10:14:03;;;;;;;;;0.00;0.00;;;;;-142.59;100.00;56100.38;5092658;27;50049;-70
2022/04/07 10:16:29;;;;;;;;;0.25;0.25;;;;;-142.59;100.00;56100.38;5093003;27;49647;-69
2022/04/07 10:19:49;;;;;;;;;0.00;0.00;;;;;-142.59;100.00;56100.38;5091683;27;49703;-69
2022/04/07 10:22:46;;;;;;;;;0.00;0.00;;;;;-142.59;100.00;56100.38;5026296;28;49915;-70
2022/04/07 10:25:13;;;;;;;;;0.00;0.00;;;;;-142.59;100.00;56100.38;5025315;28;50536;-70
2022/04/07 10:27:44;;;;;;;;;0.00;0.00;;;;;-142.59;100.00;56100.38;5083847;27;49798;-71
2022/04/07 10:30:11;;;;;;;;;0.00;0.00;;;;;-142.59;100.00;56100.38;5099593;27;49841;-71
2022/04/07 10:32:42;;;;;;;;;0.00;0.00;;;;;-142.59;100.00;56100.38;5112575;27;49847;-70
2022/04/07 10:35:10;;;;;;;;;0.00;0.00;;;;;-142.59;100.00;56100.38;5111286;27;53181;-71
2022/04/07 10:37:46;;;;;;;;;0.00;0.00;;;;;-142.59;100.00;56100.38;5111135;27;49866;-68
2022/04/07 10:40:49;;;;;;;;;0.00;0.00;;;;;-142.59;100.00;56100.38;5094489;27;49892;-72
2022/04/07 10:43:14;;;;;;;;;0.75;0.75;;;;;-142.59;100.00;56100.38;5092558;27;50023;-72
2022/04/07 10:45:44;;;;;;;;;0.00;0.00;;;;;-142.59;100.00;56100.38;5091121;27;51347;-67
2022/04/07 10:48:30;;;;;;;;;0.00;0.00;;;;;-142.59;100.00;56100.38;5092709;27;49874;-75
2022/04/07 10:51:00;;;;;;;;;0.50;0.50;;;;;-142.59;100.00;56100.38;5092572;27;49859;-72
2022/04/07 10:54:03;;;;;;;;;0.00;0.00;;;;;-142.59;100.00;56100.38;5092680;27;49907;-66
2022/04/07 10:56:38;;;;;;;;;0.00;0.00;;;;;-142.59;100.00;56100.38;5090658;27;53150;-67
2022/04/07 10:59:18;;;;;;;;;0.00;0.00;;;;;-142.59;100.00;56100.38;5092785;27;50995;-64
2022/04/07 11:01:44;;;;;;;;;1.00;0.00;;;;;-142.59;100.00;56100.38;5092563;27;49902;-66
2022/04/07 11:04:22;;;;;;;;;0.00;0.00;;;;;-142.59;100.00;56100.38;5092571;27;50207;-64
2022/04/07 11:07:07;;;;;;;;;1.00;0.00;;;;;-142.59;100.00;56100.38;5091678;27;49863;-61
2022/04/07 11:09:52;;;;;;;;;0.00;0.00;;;;;-142.59;100.00;56100.38;5091848;27;49865;-61